Terminal Aerodrome Forecast
Issued by NWS

Current Version | Previous Version | Text Only | Print | Product List | Glossary On
Versions: 1 2 3 4 5 6 7 8 9 10 11 12 13 14 15 16 17 18 19
032
FTAK31 PAJN 302000 AAB
TAFAJN
TAF AMD
PAJN 302000Z 3020/0118 10010KT P6SM VCSH BKN045 OVC100
      TEMPO 3020/3024 -SHRA BKN035
     FM010300 12010KT P6SM -SHRA SCT030 OVC045
     FM010900 10008KT P6SM -SHRA BKN028 OVC040
     FM011600 10010KT P6SM VCSH SCT030 BKN045=

USA.gov is the U.S. government's official web portal to all federal, state and local government web resources and services.